sensor_id;sensor_type;location;lat;lon;timestamp;P1;durP1;ratioP1;P2;durP2;ratioP2
8632;SDS011;4354;49.832;10.746;2022-09-16T00:00:32;11.40;;;7.50;;
8632;SDS011;4354;49.832;10.746;2022-09-16T00:02:59;9.73;;;7.40;;
8632;SDS011;4354;49.832;10.746;2022-09-16T00:05:26;14.87;;;7.93;;
8632;SDS011;4354;49.832;10.746;2022-09-16T00:07:54;9.57;;;7.47;;
8632;SDS011;4354;49.832;10.746;2022-09-16T00:10:21;8.10;;;6.97;;
8632;SDS011;4354;49.832;10.746;2022-09-16T00:12:48;8.83;;;7.20;;
8632;SDS011;4354;49.832;10.746;2022-09-16T00:15:16;8.03;;;6.53;;
8632;SDS011;4354;49.832;10.746;2022-09-16T00:17:43;7.53;;;6.83;;
8632;SDS011;4354;49.832;10.746;2022-09-16T00:20:10;10.47;;;7.67;;
8632;SDS011;4354;49.832;10.746;2022-09-16T00:22:37;7.83;;;7.03;;
8632;SDS011;4354;49.832;10.746;2022-09-16T00:25:04;11.03;;;7.50;;
8632;SDS011;4354;49.832;10.746;2022-09-16T00:27:31;11.03;;;7.17;;
8632;SDS011;4354;49.832;10.746;2022-09-16T00:29:58;8.00;;;6.83;;
8632;SDS011;4354;49.832;10.746;2022-09-16T00:32:25;8.07;;;6.47;;
8632;SDS011;4354;49.832;10.746;2022-09-16T00:34:51;7.60;;;6.90;;
8632;SDS011;4354;49.832;10.746;2022-09-16T00:37:18;10.53;;;7.80;;
8632;SDS011;4354;49.832;10.746;2022-09-16T00:39:49;9.00;;;7.40;;
8632;SDS011;4354;49.832;10.746;2022-09-16T00:42:16;12.07;;;7.87;;
8632;SDS011;4354;49.832;10.746;2022-09-16T00:44:54;11.20;;;6.70;;
8632;SDS011;4354;49.832;10.746;2022-09-16T00:47:27;8.60;;;7.77;;
8632;SDS011;4354;49.832;10.746;2022-09-16T00:49:58;12.30;;;7.80;;
8632;SDS011;4354;49.832;10.746;2022-09-16T00:52:35;9.10;;;7.37;;
8632;SDS011;4354;49.832;10.746;2022-09-16T00:55:06;8.00;;;7.20;;
8632;SDS011;4354;49.832;10.746;2022-09-16T00:57:35;7.77;;;6.97;;
8632;SDS011;4354;49.832;10.746;2022-09-16T01:00:03;10.43;;;6.97;;
8632;SDS011;4354;49.832;10.746;2022-09-16T01:02:31;10.57;;;6.73;;
8632;SDS011;4354;49.832;10.746;2022-09-16T01:05:03;7.77;;;7.03;;
8632;SDS011;4354;49.832;10.746;2022-09-16T01:07:54;8.00;;;7.30;;
8632;SDS011;4354;49.832;10.746;2022-09-16T01:10:22;8.77;;;7.03;;
8632;SDS011;4354;49.832;10.746;2022-09-16T01:12:54;10.87;;;6.83;;
8632;SDS011;4354;49.832;10.746;2022-09-16T01:15:31;8.70;;;6.57;;
8632;SDS011;4354;49.832;10.746;2022-09-16T01:18:43;8.03;;;7.20;;
8632;SDS011;4354;49.832;10.746;2022-09-16T01:21:35;7.97;;;7.17;;
8632;SDS011;4354;49.832;10.746;2022-09-16T01:32:40;7.50;;;6.17;;
8632;SDS011;4354;49.832;10.746;2022-09-16T01:49:20;5.00;;;4.50;;
8632;SDS011;4354;49.832;10.746;2022-09-16T02:00:29;5.97;;;4.73;;
8632;SDS011;4354;49.832;10.746;2022-09-16T02:05:48;8.67;;;4.43;;
8632;SDS011;4354;49.832;10.746;2022-09-16T02:08:29;7.20;;;4.37;;
8632;SDS011;4354;49.832;10.746;2022-09-16T02:10:58;7.63;;;4.80;;
8632;SDS011;4354;49.832;10.746;2022-09-16T02:13:33;5.73;;;5.03;;
8632;SDS011;4354;49.832;10.746;2022-09-16T02:16:04;9.07;;;5.47;;
8632;SDS011;4354;49.832;10.746;2022-09-16T02:18:44;7.83;;;5.23;;
8632;SDS011;4354;49.832;10.746;2022-09-16T02:21:16;9.07;;;5.63;;
8632;SDS011;4354;49.832;10.746;2022-09-16T02:23:47;7.63;;;5.90;;
8632;SDS011;4354;49.832;10.746;2022-09-16T02:26:23;7.03;;;5.80;;
8632;SDS011;4354;49.832;10.746;2022-09-16T02:28:54;6.17;;;5.57;;
8632;SDS011;4354;49.832;10.746;2022-09-16T02:31:23;9.17;;;5.60;;
8632;SDS011;4354;49.832;10.746;2022-09-16T02:34:15;8.37;;;5.87;;
8632;SDS011;4354;49.832;10.746;2022-09-16T02:36:44;8.10;;;5.60;;
8632;SDS011;4354;49.832;10.746;2022-09-16T02:39:19;6.93;;;5.10;;
8632;SDS011;4354;49.832;10.746;2022-09-16T02:41:52;8.87;;;5.43;;
8632;SDS011;4354;49.832;10.746;2022-09-16T02:44:20;7.53;;;5.77;;
8632;SDS011;4354;49.832;10.746;2022-09-16T02:47:00;7.67;;;5.17;;
8632;SDS011;4354;49.832;10.746;2022-09-16T02:50:08;7.60;;;4.73;;
8632;SDS011;4354;49.832;10.746;2022-09-16T02:52:53;7.63;;;5.70;;
8632;SDS011;4354;49.832;10.746;2022-09-16T02:55:32;9.53;;;5.37;;
8632;SDS011;4354;49.832;10.746;2022-09-16T02:58:08;5.77;;;5.07;;
8632;SDS011;4354;49.832;10.746;2022-09-16T03:00:38;8.93;;;5.43;;
8632;SDS011;4354;49.832;10.746;2022-09-16T03:03:08;6.60;;;4.37;;
8632;SDS011;4354;49.832;10.746;2022-09-16T03:05:35;4.80;;;4.27;;
8632;SDS011;4354;49.832;10.746;2022-09-16T03:08:02;7.63;;;4.03;;
8632;SDS011;4354;49.832;10.746;2022-09-16T03:10:35;10.30;;;4.00;;
8632;SDS011;4354;49.832;10.746;2022-09-16T03:13:21;5.60;;;3.70;;
8632;SDS011;4354;49.832;10.746;2022-09-16T03:19:14;6.53;;;3.17;;
8632;SDS011;4354;49.832;10.746;2022-09-16T03:21:58;8.10;;;3.27;;
8632;SDS011;4354;49.832;10.746;2022-09-16T03:24:44;6.20;;;3.77;;
8632;SDS011;4354;49.832;10.746;2022-09-16T03:27:30;4.93;;;3.87;;
8632;SDS011;4354;49.832;10.746;2022-09-16T03:30:03;7.63;;;3.33;;
8632;SDS011;4354;49.832;10.746;2022-09-16T03:32:42;7.13;;;3.70;;
8632;SDS011;4354;49.832;10.746;2022-09-16T03:37:46;5.50;;;2.93;;
8632;SDS011;4354;49.832;10.746;2022-09-16T03:40:15;9.80;;;3.60;;
8632;SDS011;4354;49.832;10.746;2022-09-16T03:42:44;12.47;;;4.10;;
8632;SDS011;4354;49.832;10.746;2022-09-16T03:45:12;6.20;;;3.23;;
8632;SDS011;4354;49.832;10.746;2022-09-16T03:47:42;8.13;;;3.80;;
8632;SDS011;4354;49.832;10.746;2022-09-16T03:50:11;8.23;;;3.60;;
8632;SDS011;4354;49.832;10.746;2022-09-16T03:52:39;8.67;;;3.30;;
8632;SDS011;4354;49.832;10.746;2022-09-16T03:55:06;9.30;;;3.60;;
8632;SDS011;4354;49.832;10.746;2022-09-16T03:57:33;10.50;;;3.20;;
8632;SDS011;4354;49.832;10.746;2022-09-16T04:00:04;4.40;;;2.83;;
8632;SDS011;4354;49.832;10.746;2022-09-16T04:02:32;10.43;;;3.57;;
8632;SDS011;4354;49.832;10.746;2022-09-16T04:05:01;5.43;;;3.40;;
8632;SDS011;4354;49.832;10.746;2022-09-16T04:07:30;7.30;;;3.73;;
8632;SDS011;4354;49.832;10.746;2022-09-16T04:09:58;4.33;;;3.07;;
8632;SDS011;4354;49.832;10.746;2022-09-16T04:12:26;7.17;;;3.20;;
8632;SDS011;4354;49.832;10.746;2022-09-16T04:14:54;6.93;;;3.67;;
8632;SDS011;4354;49.832;10.746;2022-09-16T04:17:21;8.57;;;3.63;;
8632;SDS011;4354;49.832;10.746;2022-09-16T04:19:48;5.30;;;3.30;;
8632;SDS011;4354;49.832;10.746;2022-09-16T04:22:16;7.20;;;3.37;;
8632;SDS011;4354;49.832;10.746;2022-09-16T04:24:43;7.13;;;3.80;;
8632;SDS011;4354;49.832;10.746;2022-09-16T04:27:10;4.50;;;3.20;;
8632;SDS011;4354;49.832;10.746;2022-09-16T04:29:37;5.43;;;3.60;;
8632;SDS011;4354;49.832;10.746;2022-09-16T04:32:04;7.60;;;4.20;;
8632;SDS011;4354;49.832;10.746;2022-09-16T04:34:31;5.50;;;3.77;;
8632;SDS011;4354;49.832;10.746;2022-09-16T04:36:58;10.20;;;3.47;;
8632;SDS011;4354;49.832;10.746;2022-09-16T04:39:25;6.07;;;3.50;;
8632;SDS011;4354;49.832;10.746;2022-09-16T04:41:52;5.33;;;3.80;;
8632;SDS011;4354;49.832;10.746;2022-09-16T04:44:19;7.10;;;4.37;;
8632;SDS011;4354;49.832;10.746;2022-09-16T04:46:46;6.57;;;3.93;;
8632;SDS011;4354;49.832;10.746;2022-09-16T04:49:12;7.97;;;4.60;;
8632;SDS011;4354;49.832;10.746;2022-09-16T04:51:39;6.40;;;4.43;;
8632;SDS011;4354;49.832;10.746;2022-09-16T04:54:09;5.50;;;4.37;;
8632;SDS011;4354;49.832;10.746;2022-09-16T04:56:37;7.60;;;4.40;;
8632;SDS011;4354;49.832;10.746;2022-09-16T04:59:04;6.40;;;4.20;;
8632;SDS011;4354;49.832;10.746;2022-09-16T05:01:32;7.73;;;4.10;;
8632;SDS011;4354;49.832;10.746;2022-09-16T05:04:02;6.53;;;4.50;;
8632;SDS011;4354;49.832;10.746;2022-09-16T05:06:31;6.87;;;4.60;;
8632;SDS011;4354;49.832;10.746;2022-09-16T05:09:00;6.70;;;4.30;;
8632;SDS011;4354;49.832;10.746;2022-09-16T05:11:29;6.90;;;4.23;;
8632;SDS011;4354;49.832;10.746;2022-09-16T05:13:59;8.93;;;4.10;;
8632;SDS011;4354;49.832;10.746;2022-09-16T05:16:28;6.60;;;4.50;;
8632;SDS011;4354;49.832;10.746;2022-09-16T05:18:56;6.83;;;4.30;;
8632;SDS011;4354;49.832;10.746;2022-09-16T05:21:25;5.70;;;4.33;;
8632;SDS011;4354;49.832;10.746;2022-09-16T05:23:53;6.70;;;3.57;;
8632;SDS011;4354;49.832;10.746;2022-09-16T05:26:25;7.30;;;3.43;;
8632;SDS011;4354;49.832;10.746;2022-09-16T05:28:53;7.03;;;3.90;;
8632;SDS011;4354;49.832;10.746;2022-09-16T05:31:21;6.23;;;3.50;;
8632;SDS011;4354;49.832;10.746;2022-09-16T05:36:45;5.43;;;3.30;;
8632;SDS011;4354;49.832;10.746;2022-09-16T05:39:14;7.03;;;3.50;;
8632;SDS011;4354;49.832;10.746;2022-09-16T05:41:55;9.17;;;3.57;;
8632;SDS011;4354;49.832;10.746;2022-09-16T05:44:24;5.33;;;3.60;;
8632;SDS011;4354;49.832;10.746;2022-09-16T05:46:52;5.90;;;3.87;;
8632;SDS011;4354;49.832;10.746;2022-09-16T05:49:19;4.87;;;3.70;;
8632;SDS011;4354;49.832;10.746;2022-09-16T05:51:47;5.37;;;3.50;;
8632;SDS011;4354;49.832;10.746;2022-09-16T05:54:14;6.60;;;3.73;;
8632;SDS011;4354;49.832;10.746;2022-09-16T05:56:44;4.73;;;3.13;;
8632;SDS011;4354;49.832;10.746;2022-09-16T05:59:11;6.03;;;3.10;;
8632;SDS011;4354;49.832;10.746;2022-09-16T06:01:39;7.77;;;3.70;;
8632;SDS011;4354;49.832;10.746;2022-09-16T06:04:07;6.37;;;3.30;;
8632;SDS011;4354;49.832;10.746;2022-09-16T06:06:37;8.40;;;3.43;;
8632;SDS011;4354;49.832;10.746;2022-09-16T06:09:06;6.27;;;3.10;;
8632;SDS011;4354;49.832;10.746;2022-09-16T06:11:37;5.70;;;2.87;;
8632;SDS011;4354;49.832;10.746;2022-09-16T06:14:08;4.47;;;2.63;;
8632;SDS011;4354;49.832;10.746;2022-09-16T06:16:36;6.30;;;3.10;;
8632;SDS011;4354;49.832;10.746;2022-09-16T06:19:08;5.90;;;2.80;;
8632;SDS011;4354;49.832;10.746;2022-09-16T06:21:38;4.10;;;2.40;;
8632;SDS011;4354;49.832;10.746;2022-09-16T06:24:06;6.93;;;2.10;;
8632;SDS011;4354;49.832;10.746;2022-09-16T06:26:43;5.10;;;2.20;;
8632;SDS011;4354;49.832;10.746;2022-09-16T06:29:11;4.53;;;1.73;;
8632;SDS011;4354;49.832;10.746;2022-09-16T06:31:39;2.97;;;1.90;;
8632;SDS011;4354;49.832;10.746;2022-09-16T06:34:06;5.57;;;1.90;;
8632;SDS011;4354;49.832;10.746;2022-09-16T06:36:38;3.72;;;2.28;;
8632;SDS011;4354;49.832;10.746;2022-09-16T06:39:10;5.50;;;2.15;;
8632;SDS011;4354;49.832;10.746;2022-09-16T06:41:38;2.33;;;1.75;;
8632;SDS011;4354;49.832;10.746;2022-09-16T06:44:05;5.57;;;1.90;;
8632;SDS011;4354;49.832;10.746;2022-09-16T06:46:32;4.35;;;2.35;;
8632;SDS011;4354;49.832;10.746;2022-09-16T06:49:04;5.00;;;1.98;;
8632;SDS011;4354;49.832;10.746;2022-09-16T06:51:32;3.58;;;1.83;;
8632;SDS011;4354;49.832;10.746;2022-09-16T06:54:04;5.10;;;1.98;;
8632;SDS011;4354;49.832;10.746;2022-09-16T06:56:32;4.05;;;1.95;;
8632;SDS011;4354;49.832;10.746;2022-09-16T06:59:01;5.50;;;1.50;;
8632;SDS011;4354;49.832;10.746;2022-09-16T07:01:29;4.38;;;1.88;;
8632;SDS011;4354;49.832;10.746;2022-09-16T07:03:57;3.55;;;1.58;;
8632;SDS011;4354;49.832;10.746;2022-09-16T07:06:27;4.20;;;1.65;;
8632;SDS011;4354;49.832;10.746;2022-09-16T07:09:15;2.22;;;1.50;;
8632;SDS011;4354;49.832;10.746;2022-09-16T07:11:42;5.80;;;2.10;;
8632;SDS011;4354;49.832;10.746;2022-09-16T07:14:09;4.63;;;1.80;;
8632;SDS011;4354;49.832;10.746;2022-09-16T07:16:36;3.10;;;1.60;;
8632;SDS011;4354;49.832;10.746;2022-09-16T07:19:03;3.80;;;1.45;;
8632;SDS011;4354;49.832;10.746;2022-09-16T07:21:31;4.53;;;1.63;;
8632;SDS011;4354;49.832;10.746;2022-09-16T07:23:59;6.28;;;1.63;;
8632;SDS011;4354;49.832;10.746;2022-09-16T07:26:28;6.53;;;2.00;;
8632;SDS011;4354;49.832;10.746;2022-09-16T07:29:00;6.57;;;1.98;;
8632;SDS011;4354;49.832;10.746;2022-09-16T07:31:30;6.75;;;1.67;;
8632;SDS011;4354;49.832;10.746;2022-09-16T07:33:58;6.22;;;1.70;;
8632;SDS011;4354;49.832;10.746;2022-09-16T07:36:31;5.13;;;1.30;;
8632;SDS011;4354;49.832;10.746;2022-09-16T07:39:03;6.25;;;1.77;;
8632;SDS011;4354;49.832;10.746;2022-09-16T07:41:32;5.25;;;1.60;;
8632;SDS011;4354;49.832;10.746;2022-09-16T07:44:00;3.88;;;1.40;;
8632;SDS011;4354;49.832;10.746;2022-09-16T07:46:30;4.93;;;1.30;;
8632;SDS011;4354;49.832;10.746;2022-09-16T07:48:58;2.88;;;1.10;;
8632;SDS011;4354;49.832;10.746;2022-09-16T07:51:27;2.92;;;1.17;;
8632;SDS011;4354;49.832;10.746;2022-09-16T07:53:58;4.43;;;1.40;;
8632;SDS011;4354;49.832;10.746;2022-09-16T07:56:33;2.67;;;1.17;;
8632;SDS011;4354;49.832;10.746;2022-09-16T07:59:03;3.05;;;1.00;;
8632;SDS011;4354;49.832;10.746;2022-09-16T08:01:31;4.22;;;1.30;;
8632;SDS011;4354;49.832;10.746;2022-09-16T08:03:59;2.17;;;1.00;;
8632;SDS011;4354;49.832;10.746;2022-09-16T08:06:29;3.58;;;1.10;;
8632;SDS011;4354;49.832;10.746;2022-09-16T08:08:58;1.67;;;0.93;;
8632;SDS011;4354;49.832;10.746;2022-09-16T08:11:45;3.35;;;0.82;;
8632;SDS011;4354;49.832;10.746;2022-09-16T08:14:12;2.72;;;0.90;;
8632;SDS011;4354;49.832;10.746;2022-09-16T08:16:39;2.78;;;1.23;;
8632;SDS011;4354;49.832;10.746;2022-09-16T08:19:07;2.67;;;1.17;;
8632;SDS011;4354;49.832;10.746;2022-09-16T08:21:34;3.28;;;0.90;;
8632;SDS011;4354;49.832;10.746;2022-09-16T08:24:01;4.25;;;1.23;;
8632;SDS011;4354;49.832;10.746;2022-09-16T08:26:28;1.50;;;0.80;;
8632;SDS011;4354;49.832;10.746;2022-09-16T08:28:55;1.75;;;0.90;;
8632;SDS011;4354;49.832;10.746;2022-09-16T08:31:35;1.63;;;0.90;;
8632;SDS011;4354;49.832;10.746;2022-09-16T08:34:02;2.67;;;1.23;;
8632;SDS011;4354;49.832;10.746;2022-09-16T08:36:29;4.40;;;1.27;;
8632;SDS011;4354;49.832;10.746;2022-09-16T08:38:58;3.08;;;1.30;;
8632;SDS011;4354;49.832;10.746;2022-09-16T08:46:51;2.30;;;0.98;;
8632;SDS011;4354;49.832;10.746;2022-09-16T08:54:56;4.07;;;0.98;;
8632;SDS011;4354;49.832;10.746;2022-09-16T08:57:27;3.30;;;1.02;;
8632;SDS011;4354;49.832;10.746;2022-09-16T08:59:58;2.58;;;1.00;;
8632;SDS011;4354;49.832;10.746;2022-09-16T09:06:02;2.15;;;1.13;;
8632;SDS011;4354;49.832;10.746;2022-09-16T09:11:15;2.35;;;0.80;;
8632;SDS011;4354;49.832;10.746;2022-09-16T09:14:07;2.72;;;0.93;;
8632;SDS011;4354;49.832;10.746;2022-09-16T09:26:58;5.18;;;1.05;;
8632;SDS011;4354;49.832;10.746;2022-09-16T09:29:46;3.33;;;0.90;;
8632;SDS011;4354;49.832;10.746;2022-09-16T09:32:30;1.77;;;0.88;;
8632;SDS011;4354;49.832;10.746;2022-09-16T09:40:47;3.85;;;0.90;;
8632;SDS011;4354;49.832;10.746;2022-09-16T09:43:29;5.38;;;1.10;;
8632;SDS011;4354;49.832;10.746;2022-09-16T09:48:59;2.45;;;1.20;;
8632;SDS011;4354;49.832;10.746;2022-09-16T09:51:38;5.28;;;2.22;;
8632;SDS011;4354;49.832;10.746;2022-09-16T09:54:25;3.78;;;1.33;;
8632;SDS011;4354;49.832;10.746;2022-09-16T09:56:54;4.05;;;1.38;;
8632;SDS011;4354;49.832;10.746;2022-09-16T09:59:38;3.83;;;1.20;;
8632;SDS011;4354;49.832;10.746;2022-09-16T10:02:18;3.67;;;1.23;;
8632;SDS011;4354;49.832;10.746;2022-09-16T10:04:47;4.97;;;1.45;;
8632;SDS011;4354;49.832;10.746;2022-09-16T10:07:16;3.97;;;1.33;;
8632;SDS011;4354;49.832;10.746;2022-09-16T10:10:32;5.38;;;1.77;;
8632;SDS011;4354;49.832;10.746;2022-09-16T10:12:44;3.30;;;1.20;;
8632;SDS011;4354;49.832;10.746;2022-09-16T10:15:26;4.03;;;1.30;;
8632;SDS011;4354;49.832;10.746;2022-09-16T10:17:54;5.88;;;1.67;;
8632;SDS011;4354;49.832;10.746;2022-09-16T10:20:29;4.68;;;1.70;;
8632;SDS011;4354;49.832;10.746;2022-09-16T10:23:08;4.13;;;2.88;;
8632;SDS011;4354;49.832;10.746;2022-09-16T10:25:41;4.50;;;1.60;;
8632;SDS011;4354;49.832;10.746;2022-09-16T10:28:24;4.85;;;2.03;;
8632;SDS011;4354;49.832;10.746;2022-09-16T10:30:52;3.92;;;1.52;;
8632;SDS011;4354;49.832;10.746;2022-09-16T10:33:22;4.43;;;1.30;;
8632;SDS011;4354;49.832;10.746;2022-09-16T10:36:38;3.55;;;1.40;;
8632;SDS011;4354;49.832;10.746;2022-09-16T10:38:52;4.82;;;1.30;;
8632;SDS011;4354;49.832;10.746;2022-09-16T10:41:40;4.88;;;1.55;;
8632;SDS011;4354;49.832;10.746;2022-09-16T10:44:20;4.93;;;1.52;;
8632;SDS011;4354;49.832;10.746;2022-09-16T10:47:05;3.38;;;1.48;;
8632;SDS011;4354;49.832;10.746;2022-09-16T10:49:46;4.13;;;1.27;;
8632;SDS011;4354;49.832;10.746;2022-09-16T10:52:23;3.92;;;1.20;;
8632;SDS011;4354;49.832;10.746;2022-09-16T10:54:52;1.50;;;1.40;;
8632;SDS011;4354;49.832;10.746;2022-09-16T11:08:47;4.30;;;1.90;;
8632;SDS011;4354;49.832;10.746;2022-09-16T11:14:10;3.95;;;1.60;;
8632;SDS011;4354;49.832;10.746;2022-09-16T11:19:36;5.13;;;1.90;;
8632;SDS011;4354;49.832;10.746;2022-09-16T11:22:41;3.72;;;1.70;;
8632;SDS011;4354;49.832;10.746;2022-09-16T11:28:09;3.03;;;1.80;;
8632;SDS011;4354;49.832;10.746;2022-09-16T11:30:58;6.38;;;1.95;;
8632;SDS011;4354;49.832;10.746;2022-09-16T11:39:12;3.55;;;1.45;;
8632;SDS011;4354;49.832;10.746;2022-09-16T11:41:52;3.38;;;1.45;;
8632;SDS011;4354;49.832;10.746;2022-09-16T11:55:57;3.15;;;1.20;;
8632;SDS011;4354;49.832;10.746;2022-09-16T11:59:04;3.85;;;1.98;;
8632;SDS011;4354;49.832;10.746;2022-09-16T12:02:13;2.67;;;1.30;;
8632;SDS011;4354;49.832;10.746;2022-09-16T12:04:34;3.90;;;1.80;;
8632;SDS011;4354;49.832;10.746;2022-09-16T12:10:25;2.47;;;1.42;;
8632;SDS011;4354;49.832;10.746;2022-09-16T12:13:13;2.00;;;1.40;;
8632;SDS011;4354;49.832;10.746;2022-09-16T12:15:49;4.40;;;1.50;;
8632;SDS011;4354;49.832;10.746;2022-09-16T12:21:05;4.43;;;1.58;;
8632;SDS011;4354;49.832;10.746;2022-09-16T12:23:35;4.57;;;1.77;;
8632;SDS011;4354;49.832;10.746;2022-09-16T12:26:11;2.33;;;1.50;;
8632;SDS011;4354;49.832;10.746;2022-09-16T12:31:27;4.28;;;1.60;;
8632;SDS011;4354;49.832;10.746;2022-09-16T12:34:39;3.00;;;1.48;;
8632;SDS011;4354;49.832;10.746;2022-09-16T12:40:15;3.90;;;1.33;;
8632;SDS011;4354;49.832;10.746;2022-09-16T12:45:43;4.00;;;1.40;;
8632;SDS011;4354;49.832;10.746;2022-09-16T12:48:32;3.05;;;1.45;;
8632;SDS011;4354;49.832;10.746;2022-09-16T12:51:10;3.90;;;1.48;;
8632;SDS011;4354;49.832;10.746;2022-09-16T13:01:52;3.53;;;1.60;;
8632;SDS011;4354;49.832;10.746;2022-09-16T13:04:27;4.05;;;1.67;;
8632;SDS011;4354;49.832;10.746;2022-09-16T13:06:59;3.40;;;1.40;;
8632;SDS011;4354;49.832;10.746;2022-09-16T13:09:31;3.15;;;1.40;;
8632;SDS011;4354;49.832;10.746;2022-09-16T13:12:06;3.00;;;1.88;;
8632;SDS011;4354;49.832;10.746;2022-09-16T13:15:29;3.50;;;1.83;;
8632;SDS011;4354;49.832;10.746;2022-09-16T13:18:08;4.30;;;1.80;;
8632;SDS011;4354;49.832;10.746;2022-09-16T13:20:52;3.50;;;1.70;;
8632;SDS011;4354;49.832;10.746;2022-09-16T13:23:32;4.88;;;1.65;;
8632;SDS011;4354;49.832;10.746;2022-09-16T13:26:02;4.18;;;1.65;;
8632;SDS011;4354;49.832;10.746;2022-09-16T13:28:39;2.55;;;1.38;;
8632;SDS011;4354;49.832;10.746;2022-09-16T13:33:44;3.42;;;1.60;;
8632;SDS011;4354;49.832;10.746;2022-09-16T13:36:16;3.42;;;1.60;;
8632;SDS011;4354;49.832;10.746;2022-09-16T13:38:56;4.25;;;1.98;;
8632;SDS011;4354;49.832;10.746;2022-09-16T13:44:00;3.17;;;2.13;;
8632;SDS011;4354;49.832;10.746;2022-09-16T13:49:10;2.97;;;1.63;;
8632;SDS011;4354;49.832;10.746;2022-09-16T13:51:44;3.40;;;1.77;;
8632;SDS011;4354;49.832;10.746;2022-09-16T13:54:36;3.45;;;1.48;;
8632;SDS011;4354;49.832;10.746;2022-09-16T13:57:27;2.08;;;1.20;;
8632;SDS011;4354;49.832;10.746;2022-09-16T14:02:49;1.45;;;1.00;;
8632;SDS011;4354;49.832;10.746;2022-09-16T14:13:19;1.98;;;0.90;;
8632;SDS011;4354;49.832;10.746;2022-09-16T14:15:48;1.88;;;0.85;;
8632;SDS011;4354;49.832;10.746;2022-09-16T14:18:23;2.75;;;1.23;;
8632;SDS011;4354;49.832;10.746;2022-09-16T14:23:32;1.10;;;0.80;;
8632;SDS011;4354;49.832;10.746;2022-09-16T14:26:21;3.55;;;1.13;;
8632;SDS011;4354;49.832;10.746;2022-09-16T14:28:48;2.60;;;1.17;;
8632;SDS011;4354;49.832;10.746;2022-09-16T14:31:20;2.22;;;0.80;;
8632;SDS011;4354;49.832;10.746;2022-09-16T14:33:53;1.92;;;0.90;;
8632;SDS011;4354;49.832;10.746;2022-09-16T14:36:25;1.58;;;1.00;;
8632;SDS011;4354;49.832;10.746;2022-09-16T14:38:57;2.25;;;1.10;;
8632;SDS011;4354;49.832;10.746;2022-09-16T14:41:37;3.08;;;1.08;;
8632;SDS011;4354;49.832;10.746;2022-09-16T14:44:13;2.90;;;1.15;;
8632;SDS011;4354;49.832;10.746;2022-09-16T14:46:56;2.85;;;1.10;;
8632;SDS011;4354;49.832;10.746;2022-09-16T14:49:36;4.00;;;1.30;;
8632;SDS011;4354;49.832;10.746;2022-09-16T14:52:13;2.08;;;1.00;;
8632;SDS011;4354;49.832;10.746;2022-09-16T14:54:45;1.80;;;1.10;;
8632;SDS011;4354;49.832;10.746;2022-09-16T14:57:17;1.90;;;1.10;;
8632;SDS011;4354;49.832;10.746;2022-09-16T14:59:49;2.58;;;0.77;;
8632;SDS011;4354;49.832;10.746;2022-09-16T15:02:21;4.60;;;1.00;;
8632;SDS011;4354;49.832;10.746;2022-09-16T15:04:55;2.95;;;1.25;;
8632;SDS011;4354;49.832;10.746;2022-09-16T15:07:28;1.83;;;0.95;;
8632;SDS011;4354;49.832;10.746;2022-09-16T15:10:22;3.10;;;1.00;;
8632;SDS011;4354;49.832;10.746;2022-09-16T15:13:10;2.28;;;0.90;;
8632;SDS011;4354;49.832;10.746;2022-09-16T15:15:49;1.30;;;0.80;;
8632;SDS011;4354;49.832;10.746;2022-09-16T15:21:22;4.43;;;1.50;;
8632;SDS011;4354;49.832;10.746;2022-09-16T15:23:54;2.28;;;0.80;;
8632;SDS011;4354;49.832;10.746;2022-09-16T15:32:16;1.73;;;1.00;;
8632;SDS011;4354;49.832;10.746;2022-09-16T15:35:08;1.85;;;0.90;;
8632;SDS011;4354;49.832;10.746;2022-09-16T15:37:43;1.42;;;0.90;;
8632;SDS011;4354;49.832;10.746;2022-09-16T15:43:23;3.33;;;0.70;;
8632;SDS011;4354;49.832;10.746;2022-09-16T15:46:22;2.67;;;0.70;;
8632;SDS011;4354;49.832;10.746;2022-09-16T15:51:29;2.40;;;0.82;;
8632;SDS011;4354;49.832;10.746;2022-09-16T15:54:25;1.23;;;0.70;;
8632;SDS011;4354;49.832;10.746;2022-09-16T15:57:08;1.48;;;0.90;;
8632;SDS011;4354;49.832;10.746;2022-09-16T16:02:30;1.98;;;0.70;;
8632;SDS011;4354;49.832;10.746;2022-09-16T16:05:11;0.93;;;0.68;;
8632;SDS011;4354;49.832;10.746;2022-09-16T16:07:51;1.88;;;0.90;;
8632;SDS011;4354;49.832;10.746;2022-09-16T16:13:05;1.38;;;0.70;;
8632;SDS011;4354;49.832;10.746;2022-09-16T16:15:34;1.13;;;0.60;;
8632;SDS011;4354;49.832;10.746;2022-09-16T16:18:07;0.85;;;0.68;;
8632;SDS011;4354;49.832;10.746;2022-09-16T16:20:36;2.92;;;0.85;;
8632;SDS011;4354;49.832;10.746;2022-09-16T16:23:05;1.10;;;0.70;;
8632;SDS011;4354;49.832;10.746;2022-09-16T16:25:39;0.85;;;0.60;;
8632;SDS011;4354;49.832;10.746;2022-09-16T16:28:09;0.50;;;0.50;;
8632;SDS011;4354;49.832;10.746;2022-09-16T16:30:39;2.28;;;0.70;;
8632;SDS011;4354;49.832;10.746;2022-09-16T16:33:10;2.00;;;0.60;;
8632;SDS011;4354;49.832;10.746;2022-09-16T16:35:38;1.27;;;0.60;;
8632;SDS011;4354;49.832;10.746;2022-09-16T16:38:07;0.60;;;0.60;;
8632;SDS011;4354;49.832;10.746;2022-09-16T16:40:35;1.60;;;0.60;;
8632;SDS011;4354;49.832;10.746;2022-09-16T16:43:06;1.03;;;0.70;;
8632;SDS011;4354;49.832;10.746;2022-09-16T16:45:53;1.33;;;0.80;;
8632;SDS011;4354;49.832;10.746;2022-09-16T16:48:28;1.87;;;0.77;;
8632;SDS011;4354;49.832;10.746;2022-09-16T16:51:00;1.33;;;0.63;;
8632;SDS011;4354;49.832;10.746;2022-09-16T16:53:31;3.15;;;0.70;;
8632;SDS011;4354;49.832;10.746;2022-09-16T16:56:10;0.97;;;0.60;;
8632;SDS011;4354;49.832;10.746;2022-09-16T16:58:40;2.90;;;0.60;;
8632;SDS011;4354;49.832;10.746;2022-09-16T17:01:15;1.40;;;0.60;;
8632;SDS011;4354;49.832;10.746;2022-09-16T17:03:43;0.93;;;0.67;;
8632;SDS011;4354;49.832;10.746;2022-09-16T17:06:12;3.33;;;0.77;;
8632;SDS011;4354;49.832;10.746;2022-09-16T17:08:39;0.93;;;0.60;;
8632;SDS011;4354;49.832;10.746;2022-09-16T17:11:11;0.50;;;0.50;;
8632;SDS011;4354;49.832;10.746;2022-09-16T17:13:41;0.67;;;0.57;;
8632;SDS011;4354;49.832;10.746;2022-09-16T17:16:10;0.73;;;0.60;;
8632;SDS011;4354;49.832;10.746;2022-09-16T17:18:39;1.53;;;0.70;;
8632;SDS011;4354;49.832;10.746;2022-09-16T17:21:08;2.00;;;0.70;;
8632;SDS011;4354;49.832;10.746;2022-09-16T17:23:36;1.30;;;0.80;;
8632;SDS011;4354;49.832;10.746;2022-09-16T17:26:04;2.27;;;0.90;;
8632;SDS011;4354;49.832;10.746;2022-09-16T17:28:32;2.33;;;1.50;;
8632;SDS011;4354;49.832;10.746;2022-09-16T17:30:58;3.37;;;1.20;;
8632;SDS011;4354;49.832;10.746;2022-09-16T17:33:25;1.43;;;1.03;;
8632;SDS011;4354;49.832;10.746;2022-09-16T17:35:59;3.63;;;0.67;;
8632;SDS011;4354;49.832;10.746;2022-09-16T17:38:27;2.03;;;0.70;;
8632;SDS011;4354;49.832;10.746;2022-09-16T17:41:05;2.23;;;1.00;;
8632;SDS011;4354;49.832;10.746;2022-09-16T17:43:32;1.47;;;0.90;;
8632;SDS011;4354;49.832;10.746;2022-09-16T17:46:00;1.73;;;0.80;;
8632;SDS011;4354;49.832;10.746;2022-09-16T17:48:29;2.00;;;0.70;;
8632;SDS011;4354;49.832;10.746;2022-09-16T17:50:56;1.20;;;0.80;;
8632;SDS011;4354;49.832;10.746;2022-09-16T17:53:24;0.80;;;0.80;;
8632;SDS011;4354;49.832;10.746;2022-09-16T17:55:51;1.40;;;0.90;;
8632;SDS011;4354;49.832;10.746;2022-09-16T17:58:18;1.63;;;0.90;;
8632;SDS011;4354;49.832;10.746;2022-09-16T18:00:45;1.63;;;0.80;;
8632;SDS011;4354;49.832;10.746;2022-09-16T18:03:12;1.90;;;0.90;;
8632;SDS011;4354;49.832;10.746;2022-09-16T18:05:39;1.63;;;0.70;;
8632;SDS011;4354;49.832;10.746;2022-09-16T18:08:06;2.30;;;0.80;;
8632;SDS011;4354;49.832;10.746;2022-09-16T18:10:33;2.30;;;0.90;;
8632;SDS011;4354;49.832;10.746;2022-09-16T18:13:00;1.60;;;0.80;;
8632;SDS011;4354;49.832;10.746;2022-09-16T18:15:28;0.77;;;0.60;;
8632;SDS011;4354;49.832;10.746;2022-09-16T18:17:55;1.00;;;0.90;;
8632;SDS011;4354;49.832;10.746;2022-09-16T18:20:22;1.57;;;0.90;;
8632;SDS011;4354;49.832;10.746;2022-09-16T18:22:50;2.17;;;0.90;;
8632;SDS011;4354;49.832;10.746;2022-09-16T18:25:17;1.90;;;0.80;;
8632;SDS011;4354;49.832;10.746;2022-09-16T18:27:44;1.10;;;0.80;;
8632;SDS011;4354;49.832;10.746;2022-09-16T18:30:11;1.43;;;1.10;;
8632;SDS011;4354;49.832;10.746;2022-09-16T18:32:38;1.90;;;1.00;;
8632;SDS011;4354;49.832;10.746;2022-09-16T18:35:05;1.93;;;1.23;;